Time;durP1;ratioP1;P1;durP2;ratioP2;P2;SDS_P1;SDS_P2;PMS_P1;PMS_P2;Temp;Humidity;BMP_temperature;BMP_pressure;BME280_temperature;BME280_humidity;BME280_pressure;Samples;Min_cycle;Max_cycle;Signal;HPM_P1;HPM_P2
2021/06/14 00:04:28;;;;;;;5.80;1.52;;;16.70;99.90;;;;;;20724901;28;20050;-49
2021/06/14 00:14:29;;;;;;;2.65;0.90;;;16.50;99.90;;;;;;20724770;28;20049;-49
2021/06/14 00:24:30;;;;;;;3.53;1.08;;;16.40;99.90;;;;;;20793502;28;20413;-49
2021/06/14 00:34:32;;;;;;;2.03;0.93;;;16.30;99.90;;;;;;20784960;28;20116;-49
2021/06/14 00:44:33;;;;;;;1.85;0.95;;;16.30;99.90;;;;;;20818853;28;20053;-48
2021/06/14 00:54:34;;;;;;;1.85;0.70;;;16.20;99.90;;;;;;20819100;28;20059;-49
2021/06/14 01:04:36;;;;;;;2.85;1.08;;;16.10;99.90;;;;;;20799210;28;20041;-49
2021/06/14 01:15:17;;;;;;;2.15;1.00;;;16.00;99.90;;;;;;20741670;28;20042;-49
2021/06/14 01:25:33;;;;;;;4.93;1.50;;;16.00;99.90;;;;;;20739356;28;20077;-49
2021/06/14 01:35:40;;;;;;;1.90;0.90;;;15.90;99.90;;;;;;20812563;28;20068;-48
2021/06/14 01:45:46;;;;;;;4.05;1.55;;;15.80;99.90;;;;;;20808087;28;20053;-49
2021/06/14 01:55:48;;;;;;;5.80;0.88;;;15.70;99.90;;;;;;20813844;28;20100;-48
2021/06/14 02:05:50;;;;;;;6.20;1.88;;;15.60;99.90;;;;;;20813820;28;20571;-48
2021/06/14 02:15:52;;;;;;;2.35;0.98;;;15.50;99.90;;;;;;20819176;28;20045;-48
2021/06/14 02:25:54;;;;;;;2.85;1.15;;;15.40;99.90;;;;;;20814794;28;20087;-48
2021/06/14 02:35:55;;;;;;;3.28;1.60;;;15.20;99.90;;;;;;20807363;28;20049;-48
2021/06/14 02:45:56;;;;;;;5.07;1.20;;;15.10;99.90;;;;;;20809733;28;20053;-48
2021/06/14 02:56:16;;;;;;;3.60;1.80;;;15.10;99.90;;;;;;20809585;28;20046;-48
2021/06/14 03:06:18;;;;;;;3.20;1.33;;;15.00;99.90;;;;;;20749097;28;20385;-48
2021/06/14 03:16:23;;;;;;;3.40;0.98;;;15.00;99.90;;;;;;20726103;28;20046;-49
2021/06/14 03:26:30;;;;;;;7.47;1.95;;;14.80;99.90;;;;;;20724238;28;20425;-48
2021/06/14 03:36:32;;;;;;;3.80;1.77;;;14.70;99.90;;;;;;20804048;28;20439;-48
2021/06/14 03:46:33;;;;;;;2.70;1.15;;;14.70;99.90;;;;;;20757877;28;20046;-49
2021/06/14 03:56:35;;;;;;;8.63;2.35;;;14.70;99.90;;;;;;20728025;28;20488;-49
2021/06/14 04:06:37;;;;;;;5.45;1.60;;;14.70;99.90;;;;;;20725332;28;20042;-49
2021/06/14 04:16:38;;;;;;;6.05;1.98;;;14.60;99.90;;;;;;20721453;28;20129;-48
2021/06/14 04:26:39;;;;;;;4.70;2.15;;;14.60;99.90;;;;;;20723146;28;20035;-48
2021/06/14 04:36:41;;;;;;;4.38;1.85;;;14.60;99.90;;;;;;20718714;28;20076;-48
2021/06/14 04:46:42;;;;;;;3.83;1.70;;;14.70;99.90;;;;;;20719490;28;20046;-49
2021/06/14 04:56:43;;;;;;;4.10;1.85;;;15.30;99.90;;;;;;20721460;28;20064;-49
2021/06/14 05:06:44;;;;;;;4.85;2.15;;;16.00;99.90;;;;;;20730273;28;20056;-49
2021/06/14 05:16:46;;;;;;;7.50;2.83;;;16.40;99.90;;;;;;20723826;28;20267;-49
2021/06/14 05:26:47;;;;;;;7.30;2.67;;;16.90;99.90;;;;;;20735970;28;20038;-49
2021/06/14 05:36:49;;;;;;;4.57;1.90;;;17.20;99.90;;;;;;20737301;28;20136;-49
2021/06/14 05:46:50;;;;;;;4.22;1.77;;;17.80;99.90;;;;;;20741593;28;20706;-48
2021/06/14 05:56:51;;;;;;;7.07;1.85;;;18.40;99.90;;;;;;20732705;28;20484;-48
2021/06/14 06:06:52;;;;;;;4.05;2.05;;;18.60;99.90;;;;;;20727629;28;20053;-48
2021/06/14 06:16:53;;;;;;;36.67;18.80;;;18.90;99.90;;;;;;20735240;28;20038;-48
2021/06/14 06:26:55;;;;;;;11.85;2.63;;;19.40;99.90;;;;;;20735999;28;20038;-48
2021/06/14 06:36:56;;;;;;;4.25;2.00;;;19.60;99.90;;;;;;20739160;28;20362;-48
2021/06/14 06:47:00;;;;;;;4.13;1.92;;;19.90;99.90;;;;;;20741853;28;20054;-49
2021/06/14 06:57:01;;;;;;;3.63;1.80;;;20.10;99.90;;;;;;20740390;28;20103;-49
2021/06/14 07:07:05;;;;;;;5.60;2.10;;;20.40;99.90;;;;;;20740424;28;20045;-49
2021/06/14 07:17:07;;;;;;;4.15;1.60;;;20.70;99.90;;;;;;20737437;28;20030;-49
2021/06/14 07:27:08;;;;;;;6.20;2.65;;;21.10;99.90;;;;;;20732114;28;20049;-49
2021/06/14 07:37:09;;;;;;;5.13;1.52;;;21.30;99.90;;;;;;20743065;28;20057;-49
2021/06/14 07:47:11;;;;;;;3.00;1.33;;;21.50;99.90;;;;;;20731585;28;20053;-49
2021/06/14 07:57:13;;;;;;;5.20;1.92;;;21.70;99.90;;;;;;20716626;28;20422;-49
2021/06/14 08:07:15;;;;;;;6.55;2.40;;;22.20;99.90;;;;;;20728649;28;20497;-49
2021/06/14 08:17:16;;;;;;;9.82;2.15;;;22.60;99.90;;;;;;20722705;28;20041;-49
2021/06/14 08:27:18;;;;;;;7.75;2.83;;;22.70;99.90;;;;;;20752092;28;20049;-49
2021/06/14 08:37:19;;;;;;;3.28;1.52;;;23.00;99.90;;;;;;20771057;28;20075;-49
2021/06/14 08:47:22;;;;;;;2.63;1.25;;;23.40;99.50;;;;;;20809150;28;20072;-49
2021/06/14 08:57:23;;;;;;;3.97;1.13;;;23.70;97.90;;;;;;20817854;28;20053;-49
2021/06/14 09:07:25;;;;;;;3.50;1.00;;;24.00;97.90;;;;;;20802591;28;20048;-49
2021/06/14 09:17:26;;;;;;;4.55;1.20;;;24.30;97.30;;;;;;20800994;28;20049;-49
2021/06/14 09:27:34;;;;;;;2.60;1.02;;;24.40;96.80;;;;;;20743094;28;20148;-49
2021/06/14 09:37:35;;;;;;;9.30;2.00;;;24.60;97.20;;;;;;20821204;28;20055;-49
2021/06/14 09:47:37;;;;;;;4.25;1.77;;;24.90;94.70;;;;;;20824105;28;20049;-49
2021/06/14 09:57:38;;;;;;;3.15;1.50;;;25.10;94.40;;;;;;20824748;28;20072;-49
2021/06/14 10:07:50;;;;;;;3.58;1.05;;;25.70;95.30;;;;;;20796130;28;20082;-49
2021/06/14 10:17:51;;;;;;;2.55;1.10;;;25.60;94.20;;;;;;20741015;28;20465;-49
2021/06/14 10:27:53;;;;;;;3.90;1.25;;;26.00;93.50;;;;;;20738902;28;20045;-49
2021/06/14 10:37:55;;;;;;;2.17;1.00;;;26.30;94.00;;;;;;20735620;28;20046;-49
2021/06/14 10:47:57;;;;;;;2.00;0.95;;;26.50;91.50;;;;;;20741019;28;20193;-49
2021/06/14 10:57:59;;;;;;;2.80;1.33;;;27.20;86.40;;;;;;20738687;28;20037;-49
2021/06/14 11:08:21;;;;;;;4.50;2.00;;;27.40;88.70;;;;;;20736832;28;20075;-49
2021/06/14 11:18:28;;;;;;;4.78;1.40;;;27.80;87.90;;;;;;20733363;28;20525;-49
2021/06/14 11:28:39;;;;;;;8.93;2.08;;;27.60;88.10;;;;;;20816825;28;20385;-50
2021/06/14 11:38:40;;;;;;;3.10;1.55;;;28.10;91.60;;;;;;20810672;28;20380;-49
2021/06/14 11:48:46;;;;;;;4.50;1.63;;;27.90;86.20;;;;;;20810082;28;20451;-50
2021/06/14 11:58:58;;;;;;;6.53;2.20;;;28.80;89.40;;;;;;20813386;28;20147;-50
2021/06/14 12:09:12;;;;;;;4.47;1.55;;;28.80;82.80;;;;;;20815363;28;20049;-50
2021/06/14 12:19:14;;;;;;;13.00;1.48;;;28.60;83.80;;;;;;20816504;28;20044;-49
2021/06/14 12:29:23;;;;;;;3.15;1.45;;;28.70;85.50;;;;;;20820490;28;23129;-49
2021/06/14 12:39:24;;;;;;;3.88;1.38;;;28.80;81.60;;;;;;20831349;28;22311;-49
2021/06/14 12:49:32;;;;;;;4.00;1.23;;;29.40;84.90;;;;;;20828712;28;20629;-49
2021/06/14 12:59:34;;;;;;;6.97;1.13;;;29.00;86.60;;;;;;20830754;28;21636;-50
2021/06/14 13:09:43;;;;;;;2.55;1.00;;;28.50;86.20;;;;;;20830017;28;20041;-50
2021/06/14 13:19:44;;;;;;;2.45;1.20;;;28.80;84.00;;;;;;20762260;28;20362;-49
2021/06/14 13:29:54;;;;;;;2.55;1.48;;;29.90;83.60;;;;;;20727463;28;20800;-50
2021/06/14 13:40:10;;;;;;;2.40;1.40;;;29.00;85.40;;;;;;20740192;28;20402;-51
2021/06/14 13:50:11;;;;;;;4.07;1.30;;;28.70;88.40;;;;;;20738414;28;20385;-50
2021/06/14 14:00:14;;;;;;;3.40;1.30;;;28.60;86.30;;;;;;20749551;28;20564;-50
2021/06/14 14:10:15;;;;;;;3.58;1.58;;;28.60;80.30;;;;;;20749521;28;20617;-49
2021/06/14 14:20:22;;;;;;;8.75;4.93;;;28.00;83.20;;;;;;20738229;28;20037;-49
2021/06/14 14:30:51;;;;;;;2.25;1.27;;;27.90;86.20;;;;;;20744685;28;21081;-49
2021/06/14 14:40:52;;;;;;;1.48;0.77;;;27.70;86.70;;;;;;20744692;28;20069;-49
2021/06/14 14:50:54;;;;;;;2.20;0.98;;;27.90;83.60;;;;;;20752824;28;20053;-49
2021/06/14 15:00:56;;;;;;;2.08;0.70;;;27.90;82.50;;;;;;20699267;28;20608;-49
2021/06/14 15:10:57;;;;;;;1.98;0.88;;;27.80;81.70;;;;;;20739576;28;20878;-52
2021/06/14 15:20:58;;;;;;;1.55;0.73;;;27.50;82.70;;;;;;20725487;28;23449;-52
2021/06/14 15:31:00;;;;;;;1.77;0.77;;;27.50;82.00;;;;;;20757207;28;21052;-52
2021/06/14 15:41:01;;;;;;;5.05;1.33;;;27.60;80.60;;;;;;20782430;28;20471;-52
2021/06/14 15:51:03;;;;;;;11.45;1.33;;;27.10;83.90;;;;;;20744396;28;20704;-52
2021/06/14 16:01:04;;;;;;;2.58;1.10;;;26.90;83.60;;;;;;20732057;28;20136;-51
2021/06/14 16:11:05;;;;;;;2.03;1.00;;;26.80;81.60;;;;;;20737366;28;20694;-51
2021/06/14 16:21:07;;;;;;;3.17;1.23;;;26.50;84.70;;;;;;20725346;28;20088;-51
2021/06/14 16:31:08;;;;;;;11.68;1.80;;;26.20;87.40;;;;;;20733347;28;20034;-52
2021/06/14 16:41:09;;;;;;;4.03;2.13;;;26.10;86.90;;;;;;20734439;28;20567;-51
2021/06/14 16:51:11;;;;;;;3.50;1.42;;;26.00;88.00;;;;;;20719206;28;20038;-51
2021/06/14 17:01:12;;;;;;;2.80;1.33;;;25.40;90.60;;;;;;20707228;28;20516;-51
2021/06/14 17:11:13;;;;;;;2.95;1.15;;;24.90;92.80;;;;;;20718350;28;20148;-50
2021/06/14 17:21:15;;;;;;;4.18;1.55;;;24.80;92.70;;;;;;20723021;28;20694;-51
2021/06/14 17:31:18;;;;;;;8.70;2.03;;;24.60;94.30;;;;;;20731039;28;20081;-51
2021/06/14 17:41:19;;;;;;;4.00;1.95;;;23.90;96.10;;;;;;20705010;28;20556;-50
2021/06/14 17:51:20;;;;;;;4.53;1.60;;;23.10;97.30;;;;;;20733284;28;20498;-50
2021/06/14 18:01:21;;;;;;;3.92;2.15;;;22.70;98.20;;;;;;20734185;28;20050;-50
2021/06/14 18:11:22;;;;;;;7.72;1.80;;;22.60;99.40;;;;;;20745896;28;20497;-50
2021/06/14 18:21:24;;;;;;;7.75;1.85;;;22.40;99.90;;;;;;20805552;28;20050;-50
2021/06/14 18:31:26;;;;;;;3.65;1.58;;;22.30;99.90;;;;;;20810274;28;20044;-50
2021/06/14 18:41:28;;;;;;;3.17;1.88;;;22.40;99.90;;;;;;20813445;28;20430;-50
2021/06/14 18:51:29;;;;;;;3.33;1.65;;;22.10;99.90;;;;;;20815907;28;20050;-50
2021/06/14 19:01:33;;;;;;;3.30;1.52;;;22.00;99.90;;;;;;20815584;28;20542;-50
2021/06/14 19:11:36;;;;;;;4.35;1.88;;;21.90;99.90;;;;;;20803594;28;20053;-51
2021/06/14 19:21:37;;;;;;;6.07;2.22;;;21.90;99.90;;;;;;20727896;28;20050;-50
2021/06/14 19:31:39;;;;;;;5.55;1.95;;;21.80;99.90;;;;;;20729106;28;20052;-50
2021/06/14 19:41:41;;;;;;;4.95;2.53;;;21.60;99.90;;;;;;20736821;28;20057;-50
2021/06/14 19:51:42;;;;;;;7.10;2.60;;;21.40;99.90;;;;;;20733958;28;20100;-48
2021/06/14 20:01:43;;;;;;;7.80;2.58;;;21.40;99.90;;;;;;20736597;28;20077;-48
2021/06/14 20:11:47;;;;;;;5.90;2.88;;;21.00;99.90;;;;;;20744774;28;20042;-49
2021/06/14 20:21:49;;;;;;;4.95;2.45;;;20.80;99.90;;;;;;20785254;28;20056;-49
2021/06/14 20:31:50;;;;;;;8.35;4.72;;;20.70;99.90;;;;;;20731656;28;20046;-49
2021/06/14 20:41:54;;;;;;;6.70;3.45;;;20.60;99.90;;;;;;20719306;28;20046;-49
2021/06/14 20:51:55;;;;;;;6.28;2.92;;;20.50;99.90;;;;;;20733979;28;20038;-49
2021/06/14 21:01:57;;;;;;;7.60;4.40;;;20.20;99.90;;;;;;20743406;28;20490;-49
2021/06/14 21:11:58;;;;;;;5.72;2.60;;;20.10;99.90;;;;;;20739950;28;20052;-49
2021/06/14 21:21:59;;;;;;;5.82;2.33;;;19.90;99.90;;;;;;20739970;28;20046;-49
2021/06/14 21:32:01;;;;;;;3.95;2.03;;;19.70;99.90;;;;;;20735267;28;20056;-48
2021/06/14 21:42:02;;;;;;;5.10;2.33;;;19.60;99.90;;;;;;20736601;28;20776;-48
2021/06/14 21:52:04;;;;;;;4.03;2.13;;;19.50;99.90;;;;;;20734193;28;20046;-49
2021/06/14 22:02:05;;;;;;;5.90;2.33;;;19.40;99.90;;;;;;20735916;28;20049;-49
2021/06/14 22:12:06;;;;;;;2.90;1.40;;;19.40;99.90;;;;;;20739405;28;20041;-49
2021/06/14 22:22:08;;;;;;;3.45;1.70;;;19.50;99.90;;;;;;20731638;28;20112;-49
2021/06/14 22:32:10;;;;;;;2.35;0.85;;;19.40;99.90;;;;;;20729725;28;20038;-49
2021/06/14 22:42:11;;;;;;;2.33;0.90;;;19.30;99.90;;;;;;20724689;28;20041;-49
2021/06/14 22:52:12;;;;;;;1.65;0.52;;;19.20;99.90;;;;;;20732890;28;20052;-49
2021/06/14 23:02:14;;;;;;;2.80;0.80;;;19.10;99.90;;;;;;20762795;28;20092;-48
2021/06/14 23:12:16;;;;;;;1.25;0.65;;;19.10;99.90;;;;;;20727651;28;20054;-49
2021/06/14 23:22:17;;;;;;;2.03;0.88;;;19.00;99.90;;;;;;20729126;28;20052;-48
2021/06/14 23:32:18;;;;;;;2.00;0.90;;;19.10;99.90;;;;;;20730125;28;20034;-48
2021/06/14 23:42:19;;;;;;;2.88;1.10;;;19.10;99.90;;;;;;20764516;28;20124;-49
2021/06/14 23:52:21;;;;;;;3.55;1.10;;;19.00;99.90;;;;;;20690953;28;20048;-48
